Terminal Aerodrome Forecast
Issued by NWS Houston/Galveston, TX

Home | Current Version | Previous Version | Text Only | Print | Product List | Glossary On
Versions: 1 2 3 4 5 6 7 8 9 10 11 12 13 14 15 16 17 18 19 20 21
000
FTUS44 KHGX 250550 RRA
TAFGLS
TAF
KGLS 250550Z 2506/2606 15007KT P6SM SKC
     FM250900 20005KT 6SM BR SCT015
     FM251400 04010KT P6SM SCT040
     FM251800 10010KT P6SM FEW050
     FM252200 13010KT P6SM SKC=

USA.gov is the U.S. government's official web portal to all federal, state and local government web resources and services.